createdAt,value
2019-06-20T00:00:39.001Z,99428.77
2019-06-20T00:03:06.765Z,99428.30
2019-06-20T00:05:34.580Z,99435.90
2019-06-20T00:08:02.493Z,99437.69
2019-06-20T00:10:30.389Z,99443.76
2019-06-20T00:13:00.791Z,99468.36
2019-06-20T00:15:27.920Z,99479.97
2019-06-20T00:17:55.720Z,99477.17
2019-06-20T00:20:23.518Z,99486.97
2019-06-20T00:22:51.305Z,99486.39
2019-06-20T00:25:19.090Z,99484.42
2019-06-20T00:27:46.888Z,99480.77
2019-06-20T00:30:15.459Z,99505.98
2019-06-20T00:32:45.189Z,99519.20
2019-06-20T00:35:12.977Z,99526.63
2019-06-20T00:37:40.768Z,99538.52
2019-06-20T00:40:09.142Z,99532.69
2019-06-20T00:42:36.924Z,99540.74
2019-06-20T00:45:05.583Z,99552.92
2019-06-20T00:47:33.371Z,99543.09
2019-06-20T00:50:01.148Z,99547.38
2019-06-20T00:52:28.954Z,99555.35
2019-06-20T00:54:56.723Z,99562.48
2019-06-20T00:57:24.563Z,99561.73
2019-06-20T00:59:52.347Z,99564.12
2019-06-20T01:02:20.182Z,99521.68
2019-06-20T01:04:47.997Z,99479.95
2019-06-20T01:07:18.571Z,99499.23
2019-06-20T01:09:46.331Z,99490.82
2019-06-20T01:12:14.166Z,99461.20
2019-06-20T01:14:41.945Z,99440.03
2019-06-20T01:17:09.729Z,99454.70
2019-06-20T01:19:37.573Z,99477.78
2019-06-20T01:22:05.390Z,99465.14
2019-06-20T01:24:33.292Z,99446.20
2019-06-20T01:27:01.115Z,99426.67
2019-06-20T01:29:28.869Z,99426.41
2019-06-20T01:31:56.651Z,99414.34
2019-06-20T01:34:24.436Z,99423.07
2019-06-20T01:36:52.241Z,99429.58
2019-06-20T01:39:20.010Z,99430.39
2019-06-20T01:41:50.793Z,99459.53
2019-06-20T01:44:18.583Z,99465.16
2019-06-20T01:46:46.399Z,99467.88
2019-06-20T01:49:14.166Z,99465.73
2019-06-20T01:51:41.986Z,99475.94
2019-06-20T01:54:09.739Z,99484.77
2019-06-20T01:56:37.516Z,99493.82
2019-06-20T01:59:05.327Z,99491.23
2019-06-20T02:01:33.159Z,99491.16
2019-06-20T02:04:00.977Z,99501.58
2019-06-20T02:06:28.744Z,99502.57
2019-06-20T02:11:23.983Z,99516.83
2019-06-20T02:14:06.428Z,99531.23
2019-06-20T02:16:21.494Z,99530.59
2019-06-20T02:18:49.329Z,99528.12
2019-06-20T02:21:17.096Z,99537.69
2019-06-20T02:23:44.912Z,99540.14
2019-06-20T02:26:12.701Z,99547.88
2019-06-20T02:28:40.500Z,99542.50
2019-06-20T02:31:08.272Z,99549.58
2019-06-20T02:33:36.042Z,99550.86
2019-06-20T02:36:03.865Z,99540.72
2019-06-20T02:38:31.772Z,99527.88
2019-06-20T02:40:59.534Z,99540.19
2019-06-20T02:43:27.517Z,99547.26
2019-06-20T02:45:55.354Z,99554.11
2019-06-20T02:48:23.155Z,99551.53
2019-06-20T02:50:50.917Z,99556.16
2019-06-20T02:53:18.692Z,99553.77
2019-06-20T02:55:46.639Z,99559.58
2019-06-20T02:58:14.538Z,99561.73
2019-06-20T03:00:55.538Z,99562.61
2019-06-20T03:03:23.533Z,99551.56
2019-06-20T03:05:51.401Z,99555.05
2019-06-20T03:08:19.210Z,99560.52
2019-06-20T03:10:46.978Z,99565.38
2019-06-20T03:13:14.777Z,99564.34
2019-06-20T03:15:42.580Z,99567.56
2019-06-20T03:18:10.378Z,99576.62
2019-06-20T03:20:38.145Z,99580.42
2019-06-20T03:23:05.961Z,99582.70
2019-06-20T03:25:33.745Z,99592.80
2019-06-20T03:28:01.557Z,99588.52
2019-06-20T03:30:29.487Z,99595.03
2019-06-20T03:32:57.361Z,99604.64
2019-06-20T03:35:25.185Z,99609.70
2019-06-20T03:37:52.998Z,99612.39
2019-06-20T03:40:20.785Z,99610.59
2019-06-20T03:42:48.702Z,99625.69
2019-06-20T03:45:16.445Z,99623.00
2019-06-20T03:47:44.256Z,99622.22
2019-06-20T03:50:12.231Z,99628.59
2019-06-20T03:52:40.006Z,99626.44
2019-06-20T03:55:08.400Z,99631.34
2019-06-20T03:57:36.162Z,99634.97
2019-06-20T04:00:05.111Z,99639.23
2019-06-20T04:02:32.895Z,99633.30
2019-06-20T04:05:01.048Z,99631.89
2019-06-20T04:07:28.863Z,99641.71
2019-06-20T04:09:56.631Z,99640.77
2019-06-20T04:12:24.405Z,99651.87
2019-06-20T04:14:52.198Z,99646.89
2019-06-20T04:17:19.989Z,99651.69
2019-06-20T04:19:47.781Z,99652.61
2019-06-20T04:22:15.594Z,99655.84
2019-06-20T04:24:43.422Z,99646.83
2019-06-20T04:27:11.228Z,99657.87
2019-06-20T04:29:39.044Z,99666.65
2019-06-20T04:32:06.834Z,99663.84
2019-06-20T04:34:34.724Z,99659.24
2019-06-20T04:37:02.474Z,99666.60
2019-06-20T04:39:30.289Z,99662.95
2019-06-20T04:41:58.048Z,99658.47
2019-06-20T04:44:25.913Z,99663.33
2019-06-20T04:46:59.791Z,99670.13
2019-06-20T04:49:27.646Z,99669.32
2019-06-20T04:51:55.463Z,99666.70
2019-06-20T04:54:23.298Z,99668.39
2019-06-20T04:56:51.099Z,99668.47
2019-06-20T04:59:18.943Z,99679.36
2019-06-20T05:01:46.711Z,99681.27
2019-06-20T05:04:14.520Z,99680.80
2019-06-20T05:06:46.414Z,99677.75
2019-06-20T05:09:14.210Z,99677.97
2019-06-20T05:11:41.998Z,99678.16
2019-06-20T05:14:09.823Z,99679.94
2019-06-20T05:16:37.633Z,99682.27
2019-06-20T05:19:05.454Z,99679.16
2019-06-20T05:21:33.258Z,99674.77
2019-06-20T05:24:01.071Z,99679.38
2019-06-20T05:26:28.875Z,99679.06
2019-06-20T05:28:56.655Z,99676.97
2019-06-20T05:31:24.468Z,99678.06
2019-06-20T05:33:52.426Z,99685.32
2019-06-20T05:36:20.281Z,99675.91
2019-06-20T05:38:48.052Z,99677.16
2019-06-20T05:41:15.904Z,99677.87
2019-06-20T05:43:43.732Z,99676.47
2019-06-20T05:46:11.795Z,99683.65
2019-06-20T05:48:39.566Z,99687.11
2019-06-20T05:51:07.352Z,99687.08
2019-06-20T05:53:35.153Z,99684.58
2019-06-20T05:56:02.961Z,99688.27
2019-06-20T05:58:30.754Z,99686.20
2019-06-20T06:00:58.565Z,99685.09
2019-06-20T06:03:26.408Z,99691.80
2019-06-20T06:05:54.658Z,99686.78
2019-06-20T06:08:22.594Z,99692.20
2019-06-20T06:10:50.381Z,99691.95
2019-06-20T06:13:18.191Z,99684.77
2019-06-20T06:15:46.031Z,99685.20
2019-06-20T06:18:14.222Z,99687.20
2019-06-20T06:20:44.801Z,99681.73
2019-06-20T06:23:11.844Z,99688.77
2019-06-20T06:25:41.096Z,99681.41
2019-06-20T06:28:12.242Z,99686.09
2019-06-20T06:30:38.779Z,99688.66
2019-06-20T06:33:06.524Z,99681.23
2019-06-20T06:35:34.362Z,99694.14
2019-06-20T06:38:02.180Z,99685.72
2019-06-20T06:40:30.245Z,99682.77
2019-06-20T06:42:58.146Z,99685.11
2019-06-20T06:45:25.950Z,99682.86
2019-06-20T06:47:53.751Z,99684.05
2019-06-20T06:50:21.870Z,99686.83
2019-06-20T06:52:49.681Z,99687.20
2019-06-20T06:55:18.581Z,99697.97
2019-06-20T06:57:46.457Z,99692.81
2019-06-20T07:00:16.383Z,99697.77
2019-06-20T07:02:44.202Z,99695.92
2019-06-20T07:05:12.339Z,99695.98
2019-06-20T07:07:40.315Z,99700.89
2019-06-20T07:10:08.998Z,99697.40
2019-06-20T07:12:36.970Z,99704.18
2019-06-20T07:15:05.892Z,99699.84
2019-06-20T07:17:33.714Z,99700.49
2019-06-20T07:20:01.472Z,99702.67
2019-06-20T07:22:29.583Z,99710.48
2019-06-20T07:24:57.380Z,99706.06
2019-06-20T07:27:25.165Z,99703.25
2019-06-20T07:29:52.965Z,99701.28
2019-06-20T07:32:20.847Z,99710.13
2019-06-20T07:34:49.122Z,99705.48
2019-06-20T07:37:16.925Z,99707.51
2019-06-20T07:39:44.739Z,99702.00
2019-06-20T07:42:12.523Z,99712.50
2019-06-20T07:44:40.375Z,99704.55
2019-06-20T07:47:16.941Z,99708.61
2019-06-20T07:49:37.811Z,99707.05
2019-06-20T07:52:05.714Z,99699.17
2019-06-20T07:54:33.517Z,99703.63
2019-06-20T07:57:01.358Z,99707.35
2019-06-20T07:59:29.107Z,99710.19
2019-06-20T08:01:56.932Z,99707.45
2019-06-20T08:04:24.698Z,99702.11
2019-06-20T08:06:52.526Z,99702.23
2019-06-20T08:09:22.166Z,99701.92
2019-06-20T08:11:49.981Z,99710.83
2019-06-20T08:14:17.735Z,99709.09
2019-06-20T08:16:45.511Z,99711.33
2019-06-20T08:19:13.286Z,99710.55
2019-06-20T08:21:44.054Z,99708.89
2019-06-20T08:24:10.798Z,99716.66
2019-06-20T08:26:38.618Z,99714.64
2019-06-20T08:29:19.731Z,99719.16
2019-06-20T08:31:36.122Z,99716.81
2019-06-20T08:34:04.442Z,99720.19
2019-06-20T08:36:32.338Z,99729.11
2019-06-20T08:39:00.285Z,99725.06
2019-06-20T08:41:29.578Z,99728.63
2019-06-20T08:43:58.459Z,99730.80
2019-06-20T08:46:27.062Z,99727.87
2019-06-20T08:48:54.917Z,99729.74
2019-06-20T08:51:24.522Z,99728.97
2019-06-20T08:53:52.298Z,99737.02
2019-06-20T08:56:20.113Z,99736.38
2019-06-20T08:58:47.865Z,99728.77
2019-06-20T09:01:15.645Z,99727.80
2019-06-20T09:03:43.470Z,99722.75
2019-06-20T09:06:11.259Z,99729.98
2019-06-20T09:08:39.022Z,99733.30
2019-06-20T09:11:09.601Z,99728.58
2019-06-20T09:13:39.950Z,99727.13
2019-06-20T09:16:07.558Z,99724.86
2019-06-20T09:18:35.369Z,99727.15
2019-06-20T09:21:03.129Z,99723.95
2019-06-20T09:23:30.955Z,99732.70
2019-06-20T09:25:59.651Z,99732.33
2019-06-20T09:28:27.619Z,99735.89
2019-06-20T09:30:55.400Z,99733.64
2019-06-20T09:33:23.223Z,99734.86
2019-06-20T09:35:53.583Z,99735.11
2019-06-20T09:38:23.319Z,99739.90
2019-06-20T09:40:51.922Z,99732.60
2019-06-20T09:43:27.650Z,99731.27
2019-06-20T09:45:51.421Z,99730.32
2019-06-20T09:48:20.303Z,99738.73
2019-06-20T09:50:49.307Z,99720.97
2019-06-20T09:53:17.783Z,99740.03
2019-06-20T09:55:45.568Z,99736.97
2019-06-20T09:58:13.366Z,99734.13
2019-06-20T10:00:41.683Z,99734.44
2019-06-20T10:03:09.744Z,99743.49
2019-06-20T10:05:37.832Z,99744.02
2019-06-20T10:08:06.034Z,99742.37
2019-06-20T10:10:35.218Z,99742.47
2019-06-20T10:13:02.989Z,99733.75
2019-06-20T10:15:32.106Z,99740.02
2019-06-20T10:17:59.905Z,99732.90
2019-06-20T10:20:27.878Z,99734.33
2019-06-20T10:22:55.674Z,99734.33
2019-06-20T10:25:24.056Z,99733.25
2019-06-20T10:27:53.407Z,99739.45
2019-06-20T10:30:22.488Z,99737.66
2019-06-20T10:32:51.002Z,99740.63
2019-06-20T10:35:18.989Z,99737.03
2019-06-20T10:37:48.370Z,99745.93
2019-06-20T10:40:18.744Z,99743.03
2019-06-20T10:42:48.054Z,99734.20
2019-06-20T10:45:17.744Z,99735.19
2019-06-20T10:47:47.095Z,99741.94
2019-06-20T10:50:17.042Z,99730.61
2019-06-20T10:52:45.269Z,99742.24
2019-06-20T10:55:13.393Z,99736.13
2019-06-20T10:57:41.840Z,99737.63
2019-06-20T11:00:26.789Z,99735.56
2019-06-20T11:02:43.438Z,99727.13
2019-06-20T11:05:12.949Z,99731.54
2019-06-20T11:07:42.055Z,99722.56
2019-06-20T11:10:10.935Z,99731.72
2019-06-20T11:12:45.619Z,99732.90
2019-06-20T11:15:09.612Z,99733.91
2019-06-20T11:17:38.623Z,99740.03
2019-06-20T11:20:08.064Z,99738.47
2019-06-20T11:22:37.780Z,99728.80
2019-06-20T11:25:06.537Z,99732.05
2019-06-20T11:27:34.319Z,99743.31
2019-06-20T11:30:02.135Z,99737.41
2019-06-20T11:32:30.000Z,99746.94
2019-06-20T11:34:57.960Z,99732.66
2019-06-20T11:37:25.754Z,99732.53
2019-06-20T11:39:53.732Z,99725.69
2019-06-20T11:42:21.668Z,99732.02
2019-06-20T11:44:49.538Z,99722.75
2019-06-20T11:47:20.416Z,99726.50
2019-06-20T11:49:48.325Z,99723.83
2019-06-20T11:52:16.208Z,99726.52
2019-06-20T11:54:44.123Z,99715.55
2019-06-20T11:57:11.919Z,99719.16
2019-06-20T11:59:40.041Z,99715.57
2019-06-20T12:02:10.942Z,99712.14
2019-06-20T12:04:40.058Z,99709.53
2019-06-20T12:07:10.178Z,99710.41
2019-06-20T12:09:39.560Z,99712.31
2019-06-20T12:12:08.286Z,99710.03
2019-06-20T12:14:36.205Z,99703.54
2019-06-20T12:17:04.051Z,99711.25
2019-06-20T12:19:31.959Z,99704.95
2019-06-20T12:22:00.545Z,99709.83
2019-06-20T12:24:28.540Z,99694.07
2019-06-20T12:26:56.486Z,99692.80
2019-06-20T12:29:24.518Z,99692.60
2019-06-20T12:31:52.887Z,99686.40
2019-06-20T12:34:20.762Z,99685.69
2019-06-20T12:36:48.686Z,99686.58
2019-06-20T12:39:16.597Z,99681.15
2019-06-20T12:41:45.606Z,99681.80
2019-06-20T12:44:13.653Z,99693.65
2019-06-20T12:46:42.614Z,99683.81
2019-06-20T12:49:10.539Z,99685.84
2019-06-20T12:51:39.130Z,99682.84
2019-06-20T12:54:08.100Z,99687.74
2019-06-20T12:56:35.902Z,99690.44
2019-06-20T12:59:03.865Z,99683.36
2019-06-20T13:01:38.855Z,99692.27
2019-06-20T13:04:01.483Z,99701.17
2019-06-20T13:06:29.288Z,99714.07
2019-06-20T13:08:57.128Z,99715.23
2019-06-20T13:11:24.928Z,99704.16
2019-06-20T13:13:52.722Z,99701.63
2019-06-20T13:16:20.782Z,99700.46
2019-06-20T13:18:48.666Z,99700.31
2019-06-20T13:21:18.969Z,99692.84
2019-06-20T13:23:47.227Z,99695.88
2019-06-20T13:26:15.217Z,99683.59
2019-06-20T13:28:59.070Z,99677.48
2019-06-20T13:31:12.833Z,99681.30
2019-06-20T13:33:40.999Z,99678.10
2019-06-20T13:36:09.588Z,99671.47
2019-06-20T13:38:38.028Z,99670.52
2019-06-20T13:41:07.364Z,99675.41
2019-06-20T13:43:35.256Z,99677.22
2019-06-20T13:46:03.516Z,99671.45
2019-06-20T13:48:42.215Z,99669.16
2019-06-20T13:51:19.525Z,99660.40
2019-06-20T13:53:48.629Z,99664.92
2019-06-20T13:56:17.144Z,99661.42
2019-06-20T13:58:45.052Z,99661.47
2019-06-20T14:01:14.674Z,99649.92
2019-06-20T14:03:44.043Z,99647.91
2019-06-20T14:06:12.253Z,99650.16
2019-06-20T14:08:42.368Z,99646.28
2019-06-20T14:11:10.175Z,99649.77
2019-06-20T14:13:38.005Z,99652.14
2019-06-20T14:16:05.846Z,99652.33
2019-06-20T14:18:33.641Z,99658.31
2019-06-20T14:21:01.477Z,99652.06
2019-06-20T14:23:30.523Z,99650.16
2019-06-20T14:25:58.383Z,99661.05
2019-06-20T14:28:26.227Z,99653.53
2019-06-20T14:30:54.048Z,99652.92
2019-06-20T14:33:21.864Z,99647.14
2019-06-20T14:35:51.084Z,99638.05
2019-06-20T14:38:19.044Z,99627.39
2019-06-20T14:40:48.209Z,99631.21
2019-06-20T14:43:16.254Z,99647.56
2019-06-20T14:45:45.533Z,99651.02
2019-06-20T14:48:14.207Z,99644.22
2019-06-20T14:50:43.832Z,99650.63
2019-06-20T14:53:11.790Z,99661.07
2019-06-20T14:55:39.655Z,99666.20
2019-06-20T14:58:07.548Z,99675.02
2019-06-20T15:00:35.380Z,99674.20
2019-06-20T15:03:03.446Z,99666.67
2019-06-20T15:05:34.708Z,99673.54
2019-06-20T15:08:00.964Z,99667.57
2019-06-20T15:10:28.781Z,99674.84
2019-06-20T15:12:58.501Z,99677.12
2019-06-20T15:15:26.363Z,99692.50
2019-06-20T15:17:58.094Z,99714.19
2019-06-20T15:20:26.184Z,99710.62
2019-06-20T15:22:54.689Z,99720.05
2019-06-20T15:25:24.084Z,99743.95
2019-06-20T15:27:53.946Z,99729.80
2019-06-20T15:30:21.762Z,99726.19
2019-06-20T15:33:04.384Z,99715.40
2019-06-20T15:35:19.473Z,99722.62
2019-06-20T15:37:49.908Z,99720.43
2019-06-20T15:40:18.513Z,99707.92
2019-06-20T15:42:47.098Z,99705.16
2019-06-20T15:45:16.119Z,99705.06
2019-06-20T15:47:45.809Z,99701.50
2019-06-20T15:50:15.848Z,99699.41
2019-06-20T15:52:43.665Z,99702.67
2019-06-20T15:55:11.551Z,99706.45
2019-06-20T15:57:39.681Z,99712.11
2019-06-20T16:00:08.638Z,99717.22
2019-06-20T16:02:36.482Z,99718.76
2019-06-20T16:05:05.346Z,99713.86
2019-06-20T16:07:33.181Z,99719.35
2019-06-20T16:10:01.007Z,99711.58
2019-06-20T16:12:28.833Z,99709.88
2019-06-20T16:14:56.746Z,99715.19
2019-06-20T16:17:24.612Z,99721.01
2019-06-20T16:19:52.479Z,99722.58
2019-06-20T16:22:20.385Z,99718.72
2019-06-20T16:24:48.229Z,99719.32
2019-06-20T16:27:16.390Z,99726.37
2019-06-20T16:29:44.231Z,99726.07
2019-06-20T16:32:12.054Z,99729.33
2019-06-20T16:34:39.897Z,99726.36
2019-06-20T16:37:10.465Z,99728.64
2019-06-20T16:39:37.533Z,99731.59
2019-06-20T16:42:05.368Z,99731.86
2019-06-20T16:44:33.196Z,99729.15
2019-06-20T16:47:01.008Z,99733.17
2019-06-20T16:49:28.899Z,99740.45
2019-06-20T16:51:57.105Z,99738.38
2019-06-20T16:54:25.729Z,99735.14
2019-06-20T16:56:54.861Z,99739.62
2019-06-20T16:59:23.205Z,99738.34
2019-06-20T17:01:51.041Z,99733.68
2019-06-20T17:04:20.645Z,99736.21
2019-06-20T17:06:50.098Z,99733.73
2019-06-20T17:09:23.048Z,99734.91
2019-06-20T17:11:50.908Z,99734.56
2019-06-20T17:14:18.849Z,99737.21
2019-06-20T17:16:46.703Z,99750.70
2019-06-20T17:19:14.483Z,99753.91
2019-06-20T17:21:42.335Z,99761.24
2019-06-20T17:24:10.414Z,99763.47
2019-06-20T17:26:38.190Z,99757.78
2019-06-20T17:29:06.103Z,99747.17
2019-06-20T17:31:34.028Z,99755.52
2019-06-20T17:34:01.932Z,99762.63
2019-06-20T17:36:29.696Z,99758.59
2019-06-20T17:38:57.518Z,99758.14
2019-06-20T17:41:25.390Z,99758.34
2019-06-20T17:43:53.189Z,99763.97
2019-06-20T17:46:21.010Z,99801.78
2019-06-20T17:48:48.825Z,99829.52
2019-06-20T17:51:16.756Z,99807.20
2019-06-20T17:53:44.515Z,99803.53
2019-06-20T17:56:12.384Z,99823.86
2019-06-20T17:58:40.147Z,99824.38
2019-06-20T18:01:07.997Z,99818.81
2019-06-20T18:03:35.755Z,99808.89
2019-06-20T18:06:03.542Z,99811.03
2019-06-20T18:08:31.353Z,99807.18
2019-06-20T18:10:59.157Z,99822.77
2019-06-20T18:13:26.994Z,99824.55
2019-06-20T18:15:54.807Z,99830.52
2019-06-20T18:18:22.612Z,99836.97
2019-06-20T18:20:50.387Z,99846.08
2019-06-20T18:23:18.236Z,99856.41
2019-06-20T18:25:46.052Z,99855.48
2019-06-20T18:28:13.829Z,99854.50
2019-06-20T18:30:43.118Z,99855.13
2019-06-20T18:33:11.122Z,99858.50
2019-06-20T18:35:38.991Z,99860.73
2019-06-20T18:38:06.894Z,99860.85
2019-06-20T18:40:34.683Z,99863.64
2019-06-20T18:43:02.809Z,99863.80
2019-06-20T18:45:30.695Z,99867.08
2019-06-20T18:47:58.476Z,99863.08
2019-06-20T18:50:26.319Z,99860.14
2019-06-20T18:52:54.123Z,99862.48
2019-06-20T18:55:21.908Z,99859.41
2019-06-20T18:57:50.056Z,99856.14
2019-06-20T19:00:33.605Z,99857.86
2019-06-20T19:02:50.087Z,99861.78
2019-06-20T19:05:17.992Z,99852.45
2019-06-20T19:07:45.826Z,99863.02
2019-06-20T19:10:19.762Z,99866.19
2019-06-20T19:12:47.568Z,99871.52
2019-06-20T19:15:15.829Z,99870.41
2019-06-20T19:17:43.653Z,99878.06
2019-06-20T19:20:13.413Z,99893.25
2019-06-20T19:22:41.194Z,99904.84
2019-06-20T19:25:10.629Z,99908.94
2019-06-20T19:27:46.055Z,99904.34
2019-06-20T19:30:10.492Z,99910.19
2019-06-20T19:32:38.485Z,99914.47
2019-06-20T19:35:09.859Z,99911.88
2019-06-20T19:37:36.025Z,99911.66
2019-06-20T19:40:05.560Z,99920.52
2019-06-20T19:42:33.351Z,99922.45
2019-06-20T19:45:01.632Z,99928.59
2019-06-20T19:47:29.506Z,99931.66
2019-06-20T19:49:57.434Z,99935.36
2019-06-20T19:52:25.330Z,99931.70
2019-06-20T19:54:53.107Z,99940.71
2019-06-20T19:57:21.201Z,99945.14
2019-06-20T19:59:49.013Z,99945.64
2019-06-20T20:02:16.785Z,99942.98
2019-06-20T20:04:44.537Z,99946.25
2019-06-20T20:07:12.344Z,99946.66
2019-06-20T20:09:40.160Z,99952.00
2019-06-20T20:12:09.103Z,99948.30
2019-06-20T20:14:36.960Z,99951.68
2019-06-20T20:17:04.731Z,99956.10
2019-06-20T20:19:32.491Z,99959.68
2019-06-20T20:22:00.945Z,99968.31
2019-06-20T20:24:28.678Z,99967.49
2019-06-20T20:26:56.507Z,99966.36
2019-06-20T20:29:24.282Z,99972.81
2019-06-20T20:31:52.132Z,99973.02
2019-06-20T20:34:19.898Z,99969.95
2019-06-20T20:36:47.697Z,99972.91
2019-06-20T20:39:17.042Z,99969.95
2019-06-20T20:41:45.173Z,99973.34
2019-06-20T20:44:12.954Z,99971.89
2019-06-20T20:46:40.753Z,99979.69
2019-06-20T20:49:08.593Z,99977.52
2019-06-20T20:51:36.387Z,99979.78
2019-06-20T20:54:04.161Z,99979.59
2019-06-20T20:56:31.947Z,99982.78
2019-06-20T20:58:59.784Z,99982.38
2019-06-20T21:01:30.280Z,99990.97
2019-06-20T21:03:59.213Z,99989.44
2019-06-20T21:06:27.670Z,99984.31
2019-06-20T21:08:55.531Z,99991.99
2019-06-20T21:11:23.293Z,99988.81
2019-06-20T21:13:51.081Z,99995.08
2019-06-20T21:16:18.860Z,99993.44
2019-06-20T21:18:46.660Z,99989.25
2019-06-20T21:21:14.445Z,99989.55
2019-06-20T21:23:42.157Z,99997.86
2019-06-20T21:26:09.957Z,99994.19
2019-06-20T21:28:37.773Z,99994.03
2019-06-20T21:31:05.553Z,99993.01
2019-06-20T21:33:35.117Z,99998.46
2019-06-20T21:36:08.373Z,100002.41
2019-06-20T21:38:32.634Z,100004.95
2019-06-20T21:41:00.429Z,100008.84
2019-06-20T21:43:28.483Z,100019.41
2019-06-20T21:45:56.338Z,100016.53
2019-06-20T21:48:24.095Z,100020.50
2019-06-20T21:50:51.909Z,100016.51
2019-06-20T21:53:19.682Z,100024.32
2019-06-20T21:55:47.530Z,100019.91
2019-06-20T21:58:15.290Z,100024.77
2019-06-20T22:00:48.782Z,100029.06
2019-06-20T22:03:16.557Z,100028.69
2019-06-20T22:05:44.729Z,100028.27
2019-06-20T22:08:12.525Z,100032.52
2019-06-20T22:10:40.322Z,100032.73
2019-06-20T22:13:08.184Z,100035.70
2019-06-20T22:15:36.634Z,100040.20
2019-06-20T22:18:04.500Z,100042.84
2019-06-20T22:20:32.292Z,100052.20
2019-06-20T22:23:00.053Z,100047.75
2019-06-20T22:25:27.988Z,100043.59
2019-06-20T22:27:55.751Z,100048.71
2019-06-20T22:30:48.201Z,100039.97
2019-06-20T22:33:15.982Z,100045.56
2019-06-20T22:35:45.920Z,100041.67
2019-06-20T22:38:14.000Z,100046.94
2019-06-20T22:40:41.824Z,100044.33
2019-06-20T22:43:09.600Z,100043.86
2019-06-20T22:45:37.350Z,100047.66
2019-06-20T22:48:05.138Z,100048.78
2019-06-20T22:50:32.950Z,100052.02
2019-06-20T22:53:00.745Z,100046.31
2019-06-20T22:55:28.613Z,100057.34
2019-06-20T22:57:56.369Z,100060.52
2019-06-20T23:00:24.182Z,100069.98
2019-06-20T23:02:51.975Z,100072.09
2019-06-20T23:05:19.740Z,100078.05
2019-06-20T23:07:47.523Z,100077.64
2019-06-20T23:10:16.042Z,100079.21
2019-06-20T23:12:43.843Z,100073.52
2019-06-20T23:15:12.067Z,100072.35
2019-06-20T23:17:39.859Z,100072.77
2019-06-20T23:20:08.417Z,100078.91
2019-06-20T23:22:36.218Z,100075.52
2019-06-20T23:25:04.644Z,100079.88
2019-06-20T23:27:32.463Z,100070.00
2019-06-20T23:30:00.246Z,100066.63
2019-06-20T23:32:28.027Z,100064.91
2019-06-20T23:34:55.801Z,100056.56
2019-06-20T23:37:23.564Z,100066.97
2019-06-20T23:39:51.363Z,100080.28
2019-06-20T23:42:19.155Z,100081.34
2019-06-20T23:44:47.008Z,100087.55
2019-06-20T23:47:14.805Z,100091.34
2019-06-20T23:49:42.569Z,100091.70
2019-06-20T23:52:15.228Z,100091.34
2019-06-20T23:54:43.023Z,100090.38
2019-06-20T23:57:10.819Z,100087.31
2019-06-20T23:59:38.597Z,100090.84
